Harmony Sp — 3FWE6 — position and weather

sailwx.info

Track history (hours):
 
Tides and Currents Weather Stations Pressure Air Temp Water Temp Dewpoint Dewpoint Depression Visibility Wind Speed Wind Dir Waves Ship Positions

Harmony Sp

Last reported at 2017-Sep-21 13:22 UTC. Time now 2017-Sep-24 05:22 UTC.
Position N 35°51' E 014°37'.

MMSI: 353359712.

Date/timePositionNaut miles runAvg speedWind from/ knotsBaromVisibWave heightAir tempDewpointWater temp
2017-Sep-21 13:22N 35°51' E 014°37'3 8.9
2017-Sep-21 12:59N 35°55' E 014°37'5 9.0
2017-Sep-21 12:26N 35°59' E 014°35'4 9.3
2017-Sep-21 11:59N 36°01' E 014°30'5 9.2
2017-Sep-21 11:27N 36°04' E 014°25'4 9.3
2017-Sep-21 11:00N 36°07' E 014°21'5 9.3
2017-Sep-21 10:30N 36°09' E 014°16'5 9.2
2017-Sep-21 09:59N 36°12' E 014°12'5 9.2
2017-Sep-21 09:29N 36°15' E 014°07'4 9.3
2017-Sep-21 09:00N 36°17' E 014°03'5 9.4
2017-Sep-21 08:29N 36°20' E 013°58'4 9.4
2017-Sep-21 08:00N 36°23' E 013°53'  
2017-Sep-18 11:42N 43°10' E 005°05'2 9.2
2017-Sep-18 11:30N 43°11' E 005°03'4 8.5
2017-Sep-18 11:00N 43°15' E 005°00'5 9.1
2017-Sep-18 10:26N 43°20' E 004°58'4 8.6
2017-Sep-18 10:00N 43°23' E 004°56'3 6.6
2017-Sep-18 09:30N 43°26' E 004°53'0 0.2
2017-Sep-18 08:59N 43°26' E 004°53'0 0.0
2017-Sep-18 08:29N 43°26' E 004°53'0 0.0
2017-Sep-18 07:56N 43°26' E 004°53'0 0.0
2017-Sep-18 07:29N 43°26' E 004°53'0 0.0
2017-Sep-18 06:56N 43°26' E 004°53'0 0.0
2017-Sep-18 06:29N 43°26' E 004°53'0 0.0
2017-Sep-18 05:59N 43°26' E 004°53'0 0.0
2017-Sep-18 05:26N 43°26' E 004°53'0 0.0
2017-Sep-18 04:56N 43°26' E 004°53'0 0.0
2017-Sep-18 03:08N 43°26' E 004°53'0 0.0
2017-Sep-18 02:59N 43°26' E 004°53'0 0.0
2017-Sep-18 02:29N 43°26' E 004°53'0 0.0
2017-Sep-18 01:11N 43°26' E 004°53'0 0.0
2017-Sep-17 23:14N 43°26' E 004°53'0 0.0
2017-Sep-17 22:59N 43°26' E 004°53'0 0.0
2017-Sep-17 22:23N 43°26' E 004°53'0 0.0
2017-Sep-17 21:41N 43°26' E 004°53'0 0.0
2017-Sep-17 21:26N 43°26' E 004°53'0 0.0
2017-Sep-17 20:59N 43°26' E 004°53'0 0.0
2017-Sep-17 20:26N 43°26' E 004°53'0 0.0
2017-Sep-17 19:56N 43°26' E 004°53'0 0.0
2017-Sep-17 19:23N 43°26' E 004°53'0 0.0
2017-Sep-17 18:59N 43°26' E 004°53'0 0.0
2017-Sep-17 18:23N 43°26' E 004°53'0 0.0
2017-Sep-17 17:56N 43°26' E 004°53'0 0.0
2017-Sep-17 17:29N 43°26' E 004°53'0 0.0
2017-Sep-17 16:59N 43°26' E 004°53'0 0.0
2017-Sep-17 16:29N 43°26' E 004°53'0 0.0
2017-Sep-17 15:59N 43°26' E 004°53'0 0.0
2017-Sep-17 15:29N 43°26' E 004°53'0 0.0
2017-Sep-17 14:59N 43°26' E 004°53'0 0.0
2017-Sep-17 14:29N 43°26' E 004°53'0 0.0
2017-Sep-17 13:59N 43°26' E 004°53'0 0.0
2017-Sep-17 13:29N 43°26' E 004°53'0 0.0
2017-Sep-17 12:56N 43°26' E 004°53'0 0.0
2017-Sep-17 12:29N 43°26' E 004°53'0 0.0
2017-Sep-17 09:11N 43°26' E 004°53'0 0.0
2017-Sep-17 08:59N 43°26' E 004°53'0 0.0
2017-Sep-17 08:29N 43°26' E 004°53'0 0.0
2017-Sep-17 07:38N 43°26' E 004°53'0 0.0
2017-Sep-17 07:17N 43°26' E 004°53'0 0.0
2017-Sep-17 06:59N 43°26' E 004°53'0 0.0
2017-Sep-17 06:26N 43°26' E 004°53'0 0.0
2017-Sep-17 05:59N 43°26' E 004°53'0 0.0
2017-Sep-17 05:23N 43°26' E 004°53'0 0.0
2017-Sep-17 04:56N 43°26' E 004°53'0 0.0
2017-Sep-16 20:50N 43°26' E 004°53'0 0.0
2017-Sep-16 20:26N 43°26' E 004°53'0 0.0
2017-Sep-16 18:26N 43°26' E 004°53'0 0.0
2017-Sep-16 17:50N 43°26' E 004°53'0 0.0
2017-Sep-16 17:29N 43°26' E 004°53'0 0.0
2017-Sep-16 16:59N 43°26' E 004°53'0 0.0
2017-Sep-16 16:26N 43°26' E 004°53'0 0.0
2017-Sep-16 15:59N 43°26' E 004°53'0 0.0
2017-Sep-16 15:29N 43°26' E 004°53'0 0.0
2017-Sep-16 14:59N 43°26' E 004°53'0 0.0
2017-Sep-16 14:26N 43°26' E 004°53'0 0.9
2017-Sep-16 14:00N 43°25' E 004°53'4 7.8
2017-Sep-16 13:30N 43°23' E 004°57'5 9.2
2017-Sep-16 13:00N 43°18' E 004°60'5 9.7
2017-Sep-16 12:30N 43°14' E 005°02'4 8.8
2017-Sep-16 12:00N 43°10' E 005°06'5 9.4
2017-Sep-16 11:30N 43°08' E 005°11'5 9.5
2017-Sep-16 11:00N 43°05' E 005°17'419 9.0
2017-Sep-14 12:31N 40°44' E 014°07'4 1.0
2017-Sep-14 07:59N 40°49' E 014°08'0 0.0
2017-Sep-14 07:29N 40°49' E 014°08'6 0.4
2017-Sep-13 18:07N 40°45' E 014°14'1 8.5
2017-Sep-13 18:00N 40°45' E 014°15'9 1.9
2017-Sep-13 13:11N 40°45' E 014°27'0 0.0
2017-Sep-11 14:52N 40°45' E 014°27'0 0.0
2017-Sep-11 14:28N 40°45' E 014°27'0 0.0
2017-Sep-11 13:58N 40°45' E 014°27'  
Track history (hours):
 
Tides and Currents Weather Stations Pressure Air Temp Water Temp Dewpoint Dewpoint Depression Visibility Wind Speed Wind Dir Waves Ship Positions

Harmony Sp

Last reported at 2017-Sep-21 13:22 UTC. Time now 2017-Sep-24 05:22 UTC.
Position N 35°51' E 014°37'.

MMSI: 353359712.

Date/timePositionNaut miles runAvg speedWind from/ knotsBaromVisibWave heightAir tempDewpointWater temp
2017-Sep-21 13:22N 35°51' E 014°37'3 8.9
2017-Sep-21 12:59N 35°55' E 014°37'5 9.0
2017-Sep-21 12:26N 35°59' E 014°35'4 9.3
2017-Sep-21 11:59N 36°01' E 014°30'5 9.2
2017-Sep-21 11:27N 36°04' E 014°25'4 9.3
2017-Sep-21 11:00N 36°07' E 014°21'5 9.3
2017-Sep-21 10:30N 36°09' E 014°16'5 9.2
2017-Sep-21 09:59N 36°12' E 014°12'5 9.2
2017-Sep-21 09:29N 36°15' E 014°07'4 9.3
2017-Sep-21 09:00N 36°17' E 014°03'5 9.4
2017-Sep-21 08:29N 36°20' E 013°58'4 9.4
2017-Sep-21 08:00N 36°23' E 013°53'  
2017-Sep-18 11:42N 43°10' E 005°05'2 9.2
2017-Sep-18 11:30N 43°11' E 005°03'4 8.5
2017-Sep-18 11:00N 43°15' E 005°00'5 9.1
2017-Sep-18 10:26N 43°20' E 004°58'4 8.6
2017-Sep-18 10:00N 43°23' E 004°56'3 6.6
2017-Sep-18 09:30N 43°26' E 004°53'0 0.2
2017-Sep-18 08:59N 43°26' E 004°53'0 0.0
2017-Sep-18 08:29N 43°26' E 004°53'0 0.0
2017-Sep-18 07:56N 43°26' E 004°53'0 0.0
2017-Sep-18 07:29N 43°26' E 004°53'0 0.0
2017-Sep-18 06:56N 43°26' E 004°53'0 0.0
2017-Sep-18 06:29N 43°26' E 004°53'0 0.0
2017-Sep-18 05:59N 43°26' E 004°53'0 0.0
2017-Sep-18 05:26N 43°26' E 004°53'0 0.0
2017-Sep-18 04:56N 43°26' E 004°53'0 0.0
2017-Sep-18 03:08N 43°26' E 004°53'0 0.0
2017-Sep-18 02:59N 43°26' E 004°53'0 0.0
2017-Sep-18 02:29N 43°26' E 004°53'0 0.0
2017-Sep-18 01:11N 43°26' E 004°53'0 0.0
2017-Sep-17 23:14N 43°26' E 004°53'0 0.0
2017-Sep-17 22:59N 43°26' E 004°53'0 0.0
2017-Sep-17 22:23N 43°26' E 004°53'0 0.0
2017-Sep-17 21:41N 43°26' E 004°53'0 0.0
2017-Sep-17 21:26N 43°26' E 004°53'0 0.0
2017-Sep-17 20:59N 43°26' E 004°53'0 0.0
2017-Sep-17 20:26N 43°26' E 004°53'0 0.0
2017-Sep-17 19:56N 43°26' E 004°53'0 0.0
2017-Sep-17 19:23N 43°26' E 004°53'0 0.0
2017-Sep-17 18:59N 43°26' E 004°53'0 0.0
2017-Sep-17 18:23N 43°26' E 004°53'0 0.0
2017-Sep-17 17:56N 43°26' E 004°53'0 0.0
2017-Sep-17 17:29N 43°26' E 004°53'0 0.0
2017-Sep-17 16:59N 43°26' E 004°53'0 0.0
2017-Sep-17 16:29N 43°26' E 004°53'0 0.0
2017-Sep-17 15:59N 43°26' E 004°53'0 0.0
2017-Sep-17 15:29N 43°26' E 004°53'0 0.0
2017-Sep-17 14:59N 43°26' E 004°53'0 0.0
2017-Sep-17 14:29N 43°26' E 004°53'0 0.0
2017-Sep-17 13:59N 43°26' E 004°53'0 0.0
2017-Sep-17 13:29N 43°26' E 004°53'0 0.0
2017-Sep-17 12:56N 43°26' E 004°53'0 0.0
2017-Sep-17 12:29N 43°26' E 004°53'0 0.0
2017-Sep-17 09:11N 43°26' E 004°53'0 0.0
2017-Sep-17 08:59N 43°26' E 004°53'0 0.0
2017-Sep-17 08:29N 43°26' E 004°53'0 0.0
2017-Sep-17 07:38N 43°26' E 004°53'0 0.0
2017-Sep-17 07:17N 43°26' E 004°53'0 0.0
2017-Sep-17 06:59N 43°26' E 004°53'0 0.0
2017-Sep-17 06:26N 43°26' E 004°53'0 0.0
2017-Sep-17 05:59N 43°26' E 004°53'0 0.0
2017-Sep-17 05:23N 43°26' E 004°53'0 0.0
2017-Sep-17 04:56N 43°26' E 004°53'0 0.0
2017-Sep-16 20:50N 43°26' E 004°53'0 0.0
2017-Sep-16 20:26N 43°26' E 004°53'0 0.0
2017-Sep-16 18:26N 43°26' E 004°53'0 0.0
2017-Sep-16 17:50N 43°26' E 004°53'0 0.0
2017-Sep-16 17:29N 43°26' E 004°53'0 0.0
2017-Sep-16 16:59N 43°26' E 004°53'0 0.0
2017-Sep-16 16:26N 43°26' E 004°53'0 0.0
2017-Sep-16 15:59N 43°26' E 004°53'0 0.0
2017-Sep-16 15:29N 43°26' E 004°53'0 0.0
2017-Sep-16 14:59N 43°26' E 004°53'0 0.0
2017-Sep-16 14:26N 43°26' E 004°53'0 0.9
2017-Sep-16 14:00N 43°25' E 004°53'4 7.8
2017-Sep-16 13:30N 43°23' E 004°57'5 9.2
2017-Sep-16 13:00N 43°18' E 004°60'5 9.7
2017-Sep-16 12:30N 43°14' E 005°02'4 8.8
2017-Sep-16 12:00N 43°10' E 005°06'5 9.4
2017-Sep-16 11:30N 43°08' E 005°11'5 9.5
2017-Sep-16 11:00N 43°05' E 005°17'419 9.0
2017-Sep-14 12:31N 40°44' E 014°07'4 1.0
2017-Sep-14 07:59N 40°49' E 014°08'0 0.0
2017-Sep-14 07:29N 40°49' E 014°08'6 0.4
2017-Sep-13 18:07N 40°45' E 014°14'1 8.5
2017-Sep-13 18:00N 40°45' E 014°15'9 1.9
2017-Sep-13 13:11N 40°45' E 014°27'0 0.0
2017-Sep-11 14:52N 40°45' E 014°27'0 0.0
2017-Sep-11 14:28N 40°45' E 014°27'0 0.0
2017-Sep-11 13:58N 40°45' E 014°27'  

Dump ship's entire track history